METAR Data
IDs: Format: Raw Decoded Include TAF

Data at: 0526 UTC 24 Sep 2018

KK88 240515Z AUTO 00000KT 10SM SCT032 14/14 A2999 RMK AO1 T01410141
KK88 240455Z AUTO 00000KT 10SM CLR 14/14 A2999 RMK AO1 T01420142 402520103
KK88 240435Z AUTO 00000KT 10SM CLR 15/15 A2999 RMK AO1 T01480148
KK88 240415Z AUTO 00000KT 10SM CLR 16/15 A2999 RMK AO1 T01550153
KK88 240355Z AUTO 00000KT 10SM CLR 16/16 A2999 RMK AO1 T01640162
KK88 240335Z AUTO 00000KT 10SM CLR 16/16 A2999 RMK AO1 T01610155
KK88 240315Z AUTO 12003KT 10SM CLR 17/16 A2999 RMK AO1 T01700157
KK88 240255Z AUTO 11004KT 10SM CLR 18/16 A2999 RMK AO1 T01770157
KK88 240235Z AUTO 12005KT 10SM CLR 18/16 A2999 RMK AO1 T01810157
KK88 240215Z AUTO 11006KT 10SM CLR 17/16 A2998 RMK AO1 T01730157
KK88 240155Z AUTO 09006KT 10SM CLR 16/15 A2997 RMK AO1 T01640151
KK88 240135Z AUTO 09005KT 10SM CLR 17/15 A2997 RMK AO1 T01680152
KK88 240115Z AUTO 10005KT 10SM CLR 17/15 A2997 RMK AO1 T01720153
KK88 240055Z AUTO 09005KT 10SM CLR 18/16 A2997 RMK AO1 T01750155
KK88 240035Z AUTO 09004KT 10SM CLR 19/16 A2997 RMK AO1 T01870157
KK88 240015Z AUTO 09005KT 10SM CLR 20/16 A2997 RMK AO1 T02000157
KK88 232355Z AUTO 10SM CLR 22/16 A2997 RMK AO1 T02190157 10252 20219
KK88 232335Z AUTO 09005KT 10SM CLR 23/15 A2997 RMK AO1 T02320150
KK88 232315Z AUTO 10SM CLR 24/15 A2997 RMK AO1 T02400148
KK88 232255Z AUTO 11005KT 10SM CLR 25/14 A2998 RMK AO1 T02450144
KK88 232235Z AUTO 08008KT 10SM CLR 25/15 A2998 RMK AO1 T02480145
KK88 232215Z AUTO 07006KT 10SM CLR 25/15 A2998 RMK AO1 T02500145
KK88 232155Z AUTO 09007KT 10SM CLR 25/14 A2998 RMK AO1 T02500141
KK88 232135Z AUTO 07006KT 10SM CLR 25/14 A2998 RMK AO1 T02500144
KK88 232115Z AUTO 10006KT 10SM CLR 25/15 A2999 RMK AO1 T02510146
KK88 232055Z AUTO 07008KT 10SM CLR 25/15 A2999 RMK AO1 T02500145
KK88 232035Z AUTO 11005KT 10SM CLR 25/15 A2999 RMK AO1 T02500148
KK88 232015Z AUTO 10SM CLR 25/15 A3000 RMK AO1 T02480147
KK88 231955Z AUTO 10SM CLR 25/15 A3001 RMK AO1 T02450147
KK88 231935Z AUTO 09007KT 10SM CLR 25/15 A3002 RMK AO1 T02460145
KK88 231915Z AUTO 09011KT 10SM CLR 24/15 A3003 RMK AO1 T02430146
KK88 231855Z AUTO 09010KT 10SM CLR 24/14 A3004 RMK AO1 T02420140
KK88 231835Z AUTO 10SM 24/13 A3005 RMK AO1 T02400127
KK88 231815Z AUTO 08008KT 10SM 24/14 A3006 RMK AO1 T02380144
KK88 231755Z AUTO 10SM 23/15 A3007 RMK AO1 T02340148 10234 20103
KK88 231735Z AUTO 10SM 23/15 A3007 RMK AO1 T02300147
KK88 231715Z AUTO 09005KT 10SM 22/15 A3008 RMK AO1 T02200149
KK88 231655Z AUTO 07006KT 10SM 22/15 A3009 RMK AO1 T02190152
KK88 231635Z AUTO 10008KT 10SM 21/15 A3010 RMK AO1 T02130152
KK88 231615Z AUTO 11008KT 10SM 21/16 A3010 RMK AO1 T02100158
KK88 231555Z AUTO 10005KT 10SM 20/16 A3010 RMK AO1 T02040158
KK88 231535Z AUTO 08008KT 10SM 20/16 A3011 RMK AO1 T01950159
KK88 231515Z AUTO 11006KT 10SM CLR 19/16 A3011 RMK AO1 T01910161
KK88 231455Z AUTO 08005KT 10SM CLR 18/16 A3010 RMK AO1 T01830157
KK88 231435Z AUTO 10006KT 10SM CLR 17/16 A3010 RMK AO1 T01720159
KK88 231415Z AUTO 08004KT 10SM CLR 16/16 A3010 RMK AO1 T01610161
KK88 231355Z AUTO 06004KT 10SM CLR 15/15 A3009 RMK AO1 T01470147
KK88 231335Z AUTO 05003KT 10SM CLR 14/14 A3009 RMK AO1 T01380138
KK88 231315Z AUTO 04003KT 7SM CLR 13/13 A3009 RMK AO1 T01280128
KK88 231255Z AUTO 02003KT 5SM CLR 12/12 A3009 RMK AO1 T01180118
KK88 231235Z AUTO 00000KT 3SM CLR 11/11 A3009 RMK AO1 T01100110
KK88 231215Z AUTO 05003KT 2SM CLR 11/11 A3009 RMK AO1 T01050105
KK88 231155Z AUTO 06003KT 4SM CLR 10/10 A3008 RMK AO1 T01030103 10137 20103
KK88 231135Z AUTO 05003KT 7SM CLR 11/11 A3008 RMK AO1 T01060106
KK88 231115Z AUTO 05003KT 7SM CLR 11/11 A3007 RMK AO1 T01070107
KK88 231055Z AUTO 05003KT 5SM CLR 11/11 A3007 RMK AO1 T01100110
KK88 231035Z AUTO 02003KT 10SM CLR 11/11 A3007 RMK AO1 T01110111
KK88 231015Z AUTO 00000KT 7SM CLR 11/11 A3007 RMK AO1 T01110111
KK88 230955Z AUTO 07003KT 10SM CLR 12/12 A3007 RMK AO1 T01150115
KK88 230935Z AUTO 09003KT 10SM CLR 11/11 A3007 RMK AO1 T01130113
KK88 230915Z AUTO 10004KT 10SM CLR 12/12 A3007 RMK AO1 T01160116
KK88 230850Z AUTO 10004KT 10SM CLR 12/12 A3008 RMK AO1 T01170117
KK88 230835Z AUTO 08003KT 10SM CLR 12/12 A3008 RMK AO1 T01200120
KK88 230815Z AUTO 00000KT 10SM CLR 12/12 A3008 RMK AO1 T01200120
KK88 230755Z AUTO 00000KT 10SM CLR 13/13 A3008 RMK AO1 T01290128
KK88 230735Z AUTO 11003KT 10SM CLR 14/14 A3009 RMK AO1 T01360136
KK88 230715Z AUTO 11004KT 10SM CLR 14/14 A3010 RMK AO1 T01370137
KK88 230655Z AUTO 11003KT 10SM CLR 12/12 A3010 RMK AO1 T01200120
KK88 230635Z AUTO 00000KT 10SM CLR 12/12 A3010 RMK AO1 T01210121
KK88 230615Z AUTO 09003KT 10SM CLR 13/13 A3011 RMK AO1 T01250125
KK88 230555Z AUTO 00000KT 10SM CLR 12/12 A3011 RMK AO1 T01240124 10196 20123
KK88 230535Z AUTO 00000KT 10SM CLR 13/13 A3011 RMK AO1 T01270127
KK88 230515Z AUTO 00000KT 10SM CLR 13/13 A3011 RMK AO1 T01330125
KK88 230455Z AUTO 00000KT 10SM CLR 14/13 A3011 RMK AO1 T01360131 402290102
KK88 230435Z AUTO 00000KT 10SM CLR 14/13 A3011 RMK AO1 T01360130
KK88 230415Z AUTO 14003KT 10SM CLR 14/13 A3011 RMK AO1 T01360131
KK88 230355Z AUTO 10004KT 10SM CLR 14/13 A3011 RMK AO1 T01350131
KK88 230335Z AUTO 07006KT 10SM CLR 14/13 A3011 RMK AO1 T01360132
KK88 230315Z AUTO 02004KT 10SM CLR 14/13 A3012 RMK AO1 T01370133
KK88 230255Z AUTO 02004KT 10SM CLR 14/14 A3012 RMK AO1 T01440135
KK88 230235Z AUTO 01003KT 10SM CLR 14/13 A3012 RMK AO1 T01420134
KK88 230215Z AUTO 02004KT 10SM CLR 15/13 A3012 RMK AO1 T01520132
KK88 230155Z AUTO 02003KT 10SM CLR 15/14 A3011 RMK AO1 T01470135
KK88 230135Z AUTO 05003KT 10SM CLR 15/13 A3011 RMK AO1 T01510131
KK88 230115Z AUTO 00000KT 10SM CLR 15/13 A3011 RMK AO1 T01530128
KK88 230055Z AUTO 05003KT 10SM CLR 16/13 A3011 RMK AO1 T01640126
KK88 230035Z AUTO 05005KT 10SM CLR 17/13 A3010 RMK AO1 T01650130
KK88 230015Z AUTO 07003KT 10SM CLR 18/13 A3010 RMK AO1 T01820132
KK88 222355Z AUTO 07004KT 10SM CLR 20/13 A3010 RMK AO1 T01990126 10229 20199
KK88 222335Z AUTO 10SM CLR 21/13 A3010 RMK AO1 T02110125
KK88 222315Z AUTO 06006KT 10SM CLR 22/12 A3011 RMK AO1 T02200115
KK88 222255Z AUTO 06006KT 10SM CLR 22/12 A3011 RMK AO1 T02230116
KK88 222235Z AUTO 07005KT 10SM CLR 23/12 A3011 RMK AO1 T02270118
KK88 222215Z AUTO 10SM 23/12 A3011 RMK AO1 T02270117
KK88 222155Z AUTO 05007KT 10SM 23/12 A3012 RMK AO1 T02280115
KK88 222135Z AUTO 10SM 23/12 A3012 RMK AO1 T02290118
KK88 222115Z AUTO 06008KT 10SM CLR 23/11 A3013 RMK AO1 T02270109
KK88 222055Z AUTO 07006KT 10SM CLR 23/12 A3013 RMK AO1 T02270121
KK88 222035Z AUTO 09008KT 10SM CLR 23/12 A3013 RMK AO1 T02250115
KK88 222015Z AUTO 05009KT 7SM CLR 23/12 A3014 RMK AO1 T02250120
KK88 221955Z AUTO 05006KT 10SM CLR 22/12 A3015 RMK AO1 T02200116
KK88 221935Z AUTO 10SM CLR 22/12 A3016 RMK AO1 T02170120
KK88 221915Z AUTO 06006KT 10SM CLR 22/12 A3017 RMK AO1 T02150121
KK88 221855Z AUTO 08006KT 10SM CLR 21/12 A3018 RMK AO1 T02140121
KK88 221835Z AUTO 05008KT 10SM CLR 21/12 A3019 RMK AO1 T02100120
KK88 221815Z AUTO 08009KT 10SM CLR 21/12 A3019 RMK AO1 T02060122
KK88 221755Z AUTO 08009KT 10SM CLR 20/12 A3020 RMK AO1 T02030119 10203 20102
KK88 221735Z AUTO 07006G14KT 10SM CLR 20/12 A3021 RMK AO1 T02000124